Terminal Aerodrome Forecast
Issued by NWS North Platte, NE

Home | Current Version | Previous Version | Text Only | Print | Product List | Glossary On
Versions: 1 2 3 4 5 6 7 8 9 10 11 12 13 14 15 16
000
FTUS43 KLBF 260520
TAFLBF
TAF
KLBF 260520Z 2606/2706 34005KT P6SM BKN100 BKN250
     FM261200 36008KT P6SM SCT250
     FM261800 03007KT P6SM SCT250
     FM262000 10008KT P6SM BKN250
     FM270300 09010KT P6SM BKN100 OVC250=

USA.gov is the U.S. government's official web portal to all federal, state and local government web resources and services.